Main page
Satellite images 10-day forecastsClimateMarine weather Cyclones Lightning AirportsFAQ Newsletter About
Weather : Europe Africa North America South America Asia Australia-Oceania Others
Languages Contact

Mangalore, India

Mangalore Airport

latitude: 12-55N, longitude: 074-53E, elevation: 102 m


METAR: missing
TAF: VOML 180000Z 1803/1812 09005KT 6000 SCT015 SCT080 BECMG 1806/1807 29010KT TEMPO 1809/1812 SCT015 FEW025CB BKN080

Time: 12:42 (07:12 UTC)

Forecast

The report was made 7 hours and 12 minutes ago, at 00:00 UTC
Forecast valid from 18 at 03 UTC to 18 at 12 UTC
Wind 5 kt from the East
Visibility: 6000 m
Scattered clouds at a height of 1500 ft
Scattered clouds at a height of 8000 ft
Becoming
from 18 at 06 UTC to 18 at 07 UTC
Wind 10 kt from the West/Northwest
Temporary
from 18 at 09 UTC to 18 at 12 UTC
Scattered clouds at a height of 1500 ft
Few clouds at a height of 2500 ft, Cumulonimbus.
Broken clouds at a height of 8000 ft
The information on this site is subject to a disclaimer
Weather : Europe Africa North America South America Asia Australia-Oceania Others
Satellite images 10-day forecastsClimateMarine weather Cyclones Lightning AirportsFAQ Languages Contact Newsletter About